Shabla, Bulgaria
Current Conditions -  °F | °C
As of 10:00 AM on Saturday 20 Dec 2014 (Local Time) from LBWN Reporting Station
Clear Clear  
Wind Chill: 36°   Ceiling: Unl
Heat Index: 39°   Visibility: 6mi
Dew Point: 39°   Wind: 5mph
Humidity: 100%   Direction: 310°NW
Pressure: 30.03"   Gusts: NA
Location:  43.54°N, 28.54°E
Report Text: LBWN 200700Z 31004KT 200V320 CAVOK 04/04 Q1017 NOSIG
Loading
Personal Weather Stations






























Interactive Weather Map New forecast layout! Learn more

10-Day Weather Forecast

Advertisements
Track Severe Weather on mobile